createdAt,value
2019-03-15T00:00:39.417Z,93.91
2019-03-15T00:01:44.743Z,93.34
2019-03-15T00:02:50.366Z,94.17
2019-03-15T00:03:55.984Z,94.96
2019-03-15T00:05:01.600Z,94.94
2019-03-15T00:06:07.253Z,95.27
2019-03-15T00:07:12.841Z,95.45
2019-03-15T00:08:18.463Z,95.65
2019-03-15T00:09:24.096Z,94.95
2019-03-15T00:10:29.678Z,95.06
2019-03-15T00:11:35.288Z,95.14
2019-03-15T00:12:40.934Z,94.87
2019-03-15T00:13:46.500Z,94.73
2019-03-15T00:14:52.119Z,93.97
2019-03-15T00:15:57.703Z,94.11
2019-03-15T00:17:05.091Z,94.22
2019-03-15T00:18:10.694Z,94.22
2019-03-15T00:19:16.352Z,94.77
2019-03-15T00:20:21.995Z,94.64
2019-03-15T00:21:27.616Z,94.51
2019-03-15T00:22:33.324Z,94.71
2019-03-15T00:23:38.899Z,94.92
2019-03-15T00:24:44.826Z,95.05
2019-03-15T00:25:50.140Z,94.61
2019-03-15T00:26:55.745Z,94.45
2019-03-15T00:28:01.377Z,94.43
2019-03-15T00:29:06.995Z,95.34
2019-03-15T00:30:12.292Z,96.32
2019-03-15T00:31:17.963Z,96.25
2019-03-15T00:32:23.211Z,95.68
2019-03-15T00:33:30.595Z,96.33
2019-03-15T00:34:36.282Z,96.61
2019-03-15T00:35:41.875Z,96.50
2019-03-15T00:36:47.469Z,96.38
2019-03-15T00:37:53.075Z,96.24
2019-03-15T00:38:58.713Z,96.13
2019-03-15T00:40:03.735Z,96.06
2019-03-15T00:41:08.951Z,95.43
2019-03-15T00:42:14.969Z,95.86
2019-03-15T00:43:20.558Z,95.52
2019-03-15T00:44:26.155Z,96.14
2019-03-15T00:45:31.354Z,96.73
2019-03-15T00:46:36.950Z,96.43
2019-03-15T00:47:42.570Z,95.39
2019-03-15T00:48:48.203Z,94.99
2019-03-15T00:49:53.809Z,95.01
2019-03-15T00:50:59.357Z,92.89
2019-03-15T00:52:04.635Z,92.38
2019-03-15T00:53:10.226Z,92.37
2019-03-15T00:54:15.815Z,91.27
2019-03-15T00:55:21.477Z,91.34
2019-03-15T00:56:30.064Z,91.25
2019-03-15T00:57:35.278Z,90.62
2019-03-15T00:58:40.991Z,90.77
2019-03-15T00:59:46.591Z,90.79
2019-03-15T01:00:52.184Z,90.66
2019-03-15T01:01:57.791Z,90.33
2019-03-15T01:03:03.355Z,90.19
2019-03-15T01:04:09.580Z,90.22
2019-03-15T01:05:14.348Z,90.62
2019-03-15T01:06:19.922Z,90.48
2019-03-15T01:07:25.502Z,90.84
2019-03-15T01:08:31.077Z,90.16
2019-03-15T01:09:36.678Z,88.97
2019-03-15T01:10:42.264Z,87.92
2019-03-15T01:11:47.841Z,87.79
2019-03-15T01:12:53.464Z,88.26
2019-03-15T01:13:59.036Z,89.24
2019-03-15T01:15:04.014Z,89.37
2019-03-15T01:16:09.679Z,89.08
2019-03-15T01:17:15.265Z,89.28
2019-03-15T01:18:20.835Z,88.71
2019-03-15T01:19:26.411Z,88.99
2019-03-15T01:20:32.003Z,89.59
2019-03-15T01:21:37.589Z,89.69
2019-03-15T01:22:43.266Z,89.13
2019-03-15T01:23:48.825Z,89.40
2019-03-15T01:24:54.449Z,89.27
2019-03-15T01:26:00.046Z,89.51
2019-03-15T01:27:05.294Z,88.98
2019-03-15T01:28:10.916Z,88.66
2019-03-15T01:29:16.556Z,88.24
2019-03-15T01:30:22.175Z,88.59
2019-03-15T01:31:27.826Z,88.50
2019-03-15T01:32:33.408Z,88.23
2019-03-15T01:33:42.616Z,88.26
2019-03-15T01:34:48.215Z,87.85
2019-03-15T01:35:53.792Z,87.43
2019-03-15T01:36:59.380Z,86.68
2019-03-15T01:38:05.141Z,87.37
2019-03-15T01:39:10.606Z,87.42
2019-03-15T01:40:16.266Z,86.63
2019-03-15T01:41:21.858Z,86.44
2019-03-15T01:42:27.409Z,86.31
2019-03-15T01:43:33.009Z,86.87
2019-03-15T01:44:38.578Z,87.94
2019-03-15T01:45:44.217Z,87.12
2019-03-15T01:46:49.811Z,87.15
2019-03-15T01:47:55.425Z,86.91
2019-03-15T01:49:01.041Z,86.32
2019-03-15T01:50:05.965Z,86.24
2019-03-15T01:51:11.592Z,85.61
2019-03-15T01:52:17.241Z,85.68
2019-03-15T01:53:23.518Z,86.08
2019-03-15T01:54:28.432Z,86.58
2019-03-15T01:55:34.036Z,86.75
2019-03-15T01:56:39.632Z,86.00
2019-03-15T01:57:45.279Z,86.02
2019-03-15T01:58:50.883Z,86.48
2019-03-15T01:59:56.452Z,85.93
2019-03-15T02:01:02.057Z,85.54
2019-03-15T02:02:07.643Z,86.05
2019-03-15T02:03:13.651Z,86.09
2019-03-15T02:04:19.705Z,86.21
2019-03-15T02:05:25.307Z,87.41
2019-03-15T02:06:30.518Z,86.84
2019-03-15T02:07:35.721Z,86.56
2019-03-15T02:08:41.281Z,86.11
2019-03-15T02:09:46.878Z,86.62
2019-03-15T02:10:52.498Z,86.81
2019-03-15T02:11:58.093Z,86.33
2019-03-15T02:13:03.699Z,87.03
2019-03-15T02:14:09.259Z,86.78
2019-03-15T02:15:14.949Z,86.35
2019-03-15T02:16:20.562Z,86.18
2019-03-15T02:17:26.661Z,86.28
2019-03-15T02:18:31.787Z,86.42
2019-03-15T02:19:37.358Z,86.59
2019-03-15T02:20:42.996Z,87.07
2019-03-15T02:21:48.616Z,87.30
2019-03-15T02:22:54.195Z,87.75
2019-03-15T02:23:59.792Z,86.91
2019-03-15T02:25:04.729Z,86.91
2019-03-15T02:26:10.305Z,86.91
2019-03-15T02:27:15.860Z,86.88
2019-03-15T02:28:21.467Z,86.80
2019-03-15T02:29:27.005Z,87.20
2019-03-15T02:30:32.241Z,87.53
2019-03-15T02:31:37.822Z,87.79
2019-03-15T02:32:43.434Z,87.49
2019-03-15T02:33:49.024Z,87.20
2019-03-15T02:34:54.583Z,87.08
2019-03-15T02:36:00.221Z,86.74
2019-03-15T02:37:06.876Z,86.96
2019-03-15T02:38:11.081Z,87.61
2019-03-15T02:39:16.683Z,87.86
2019-03-15T02:40:22.337Z,87.51
2019-03-15T02:41:27.991Z,86.87
2019-03-15T02:42:33.607Z,86.53
2019-03-15T02:43:39.218Z,86.96
2019-03-15T02:44:44.830Z,87.33
2019-03-15T02:45:50.460Z,87.66
2019-03-15T02:46:56.043Z,87.00
2019-03-15T02:48:01.615Z,86.80
2019-03-15T02:49:08.242Z,86.57
2019-03-15T02:50:12.918Z,86.48
2019-03-15T02:51:18.510Z,86.41
2019-03-15T02:52:25.030Z,86.99
2019-03-15T02:53:30.677Z,86.74
2019-03-15T02:54:36.257Z,86.65
2019-03-15T02:55:41.841Z,86.40
2019-03-15T02:56:47.528Z,86.20
2019-03-15T02:57:53.139Z,86.71
2019-03-15T02:58:58.757Z,86.52
2019-03-15T03:00:03.660Z,86.25
2019-03-15T03:01:09.258Z,86.24
2019-03-15T03:02:14.833Z,86.20
2019-03-15T03:03:20.815Z,86.29
2019-03-15T03:04:26.117Z,86.13
2019-03-15T03:05:31.687Z,85.67
2019-03-15T03:06:38.233Z,86.06
2019-03-15T03:07:43.796Z,86.59
2019-03-15T03:08:49.366Z,86.74
2019-03-15T03:09:54.961Z,86.22
2019-03-15T03:11:00.559Z,85.70
2019-03-15T03:12:06.246Z,86.24
2019-03-15T03:13:12.205Z,86.40
2019-03-15T03:14:17.857Z,86.26
2019-03-15T03:15:24.510Z,86.65
2019-03-15T03:16:29.085Z,86.93
2019-03-15T03:17:34.656Z,86.44
2019-03-15T03:18:40.263Z,86.18
2019-03-15T03:19:45.833Z,86.43
2019-03-15T03:20:51.439Z,87.04
2019-03-15T03:21:57.047Z,87.18
2019-03-15T03:23:04.028Z,87.87
2019-03-15T03:24:08.364Z,87.79
2019-03-15T03:25:13.920Z,88.36
2019-03-15T03:26:19.584Z,88.91
2019-03-15T03:27:25.166Z,89.00
2019-03-15T03:28:30.728Z,88.55
2019-03-15T03:29:36.301Z,89.07
2019-03-15T03:30:41.925Z,89.13
2019-03-15T03:31:47.581Z,89.68
2019-03-15T03:32:53.149Z,89.41
2019-03-15T03:33:58.759Z,89.03
2019-03-15T03:35:03.746Z,88.84
2019-03-15T03:36:09.362Z,88.51
2019-03-15T03:37:14.960Z,88.64
2019-03-15T03:38:20.522Z,88.81
2019-03-15T03:39:27.159Z,89.37
2019-03-15T03:40:32.717Z,89.35
2019-03-15T03:41:37.993Z,89.33
2019-03-15T03:42:43.589Z,89.05
2019-03-15T03:43:49.229Z,88.95
2019-03-15T03:44:54.933Z,88.32
2019-03-15T03:46:00.544Z,88.81
2019-03-15T03:47:06.217Z,89.03
2019-03-15T03:48:11.822Z,88.69
2019-03-15T03:49:17.438Z,88.71
2019-03-15T03:50:23.032Z,88.46
2019-03-15T03:51:28.657Z,88.42
2019-03-15T03:52:34.274Z,88.91
2019-03-15T03:53:40.061Z,89.29
2019-03-15T03:54:45.635Z,89.23
2019-03-15T03:55:51.606Z,88.99
2019-03-15T03:56:55.804Z,88.93
2019-03-15T03:58:00.668Z,88.83
2019-03-15T03:59:05.999Z,88.88
2019-03-15T04:00:12.586Z,88.47
2019-03-15T04:01:17.523Z,89.32
2019-03-15T04:02:23.550Z,89.45
2019-03-15T04:03:29.164Z,89.55
2019-03-15T04:04:34.403Z,89.28
2019-03-15T04:05:40.009Z,89.58
2019-03-15T04:06:45.294Z,89.01
2019-03-15T04:07:54.295Z,88.84
2019-03-15T04:08:59.859Z,88.75
2019-03-15T04:10:05.788Z,89.15
2019-03-15T04:11:11.353Z,88.78
2019-03-15T04:12:17.143Z,88.37
2019-03-15T04:13:23.877Z,88.05
2019-03-15T04:14:29.524Z,88.80
2019-03-15T04:15:35.844Z,88.96
2019-03-15T04:16:41.502Z,88.97
2019-03-15T04:17:47.208Z,88.76
2019-03-15T04:18:52.752Z,88.83
2019-03-15T04:19:58.348Z,89.14
2019-03-15T04:21:03.527Z,89.47
2019-03-15T04:22:09.144Z,88.87
2019-03-15T04:23:14.773Z,88.94
2019-03-15T04:24:20.331Z,88.68
2019-03-15T04:25:25.956Z,88.69
2019-03-15T04:26:31.562Z,88.51
2019-03-15T04:27:37.255Z,88.29
2019-03-15T04:28:42.898Z,88.32
2019-03-15T04:29:48.514Z,88.48
2019-03-15T04:30:54.139Z,88.54
2019-03-15T04:31:59.910Z,87.71
2019-03-15T04:33:05.538Z,87.65
2019-03-15T04:34:11.173Z,87.78
2019-03-15T04:35:16.756Z,87.49
2019-03-15T04:36:22.352Z,87.70
2019-03-15T04:37:28.013Z,87.04
2019-03-15T04:38:33.611Z,87.57
2019-03-15T04:39:39.216Z,87.88
2019-03-15T04:40:44.885Z,86.97
2019-03-15T04:41:50.478Z,86.91
2019-03-15T04:42:56.159Z,86.76
2019-03-15T04:44:01.750Z,86.69
2019-03-15T04:45:06.635Z,86.79
2019-03-15T04:46:12.195Z,86.53
2019-03-15T04:47:17.808Z,86.71
2019-03-15T04:48:23.382Z,86.97
2019-03-15T04:49:28.933Z,87.32
2019-03-15T04:50:34.573Z,87.27
2019-03-15T04:51:40.167Z,87.13
2019-03-15T04:52:46.848Z,87.31
2019-03-15T04:53:52.520Z,86.90
2019-03-15T04:54:58.143Z,87.11
2019-03-15T04:56:03.748Z,87.28
2019-03-15T04:57:09.390Z,87.17
2019-03-15T04:58:14.970Z,86.83
2019-03-15T04:59:23.778Z,86.29
2019-03-15T05:00:26.183Z,86.45
2019-03-15T05:01:31.760Z,86.83
2019-03-15T05:02:37.359Z,87.22
2019-03-15T05:03:43.001Z,87.16
2019-03-15T05:04:48.584Z,87.03
2019-03-15T05:06:03.036Z,86.99
2019-03-15T05:06:59.902Z,86.89
2019-03-15T05:08:05.540Z,87.46
2019-03-15T05:09:11.125Z,87.79
2019-03-15T05:10:16.677Z,87.93
2019-03-15T05:11:23.951Z,87.90
2019-03-15T05:12:29.608Z,87.93
2019-03-15T05:13:34.874Z,87.83
2019-03-15T05:14:40.512Z,87.15
2019-03-15T05:15:46.107Z,87.33
2019-03-15T05:16:51.701Z,87.55
2019-03-15T05:17:57.298Z,87.41
2019-03-15T05:19:02.892Z,87.46
2019-03-15T05:20:07.779Z,87.55
2019-03-15T05:21:13.437Z,87.83
2019-03-15T05:22:19.075Z,87.95
2019-03-15T05:23:24.707Z,87.72
2019-03-15T05:24:30.313Z,87.23
2019-03-15T05:25:35.885Z,87.49
2019-03-15T05:26:41.451Z,87.75
2019-03-15T05:27:47.072Z,88.16
2019-03-15T05:28:52.359Z,88.31
2019-03-15T05:29:57.974Z,88.43
2019-03-15T05:31:03.219Z,88.95
2019-03-15T05:32:08.811Z,89.50
2019-03-15T05:33:14.472Z,90.10
2019-03-15T05:34:20.072Z,89.94
2019-03-15T05:35:25.288Z,89.57
2019-03-15T05:36:30.859Z,89.71
2019-03-15T05:37:36.722Z,89.45
2019-03-15T05:38:42.336Z,89.57
2019-03-15T05:39:47.900Z,89.55
2019-03-15T05:40:52.809Z,89.50
2019-03-15T05:41:58.391Z,89.80
2019-03-15T05:43:04.016Z,89.99
2019-03-15T05:44:09.590Z,89.25
2019-03-15T05:45:15.432Z,90.48
2019-03-15T05:46:21.868Z,90.72
2019-03-15T05:47:27.530Z,90.57
2019-03-15T05:48:33.156Z,90.61
2019-03-15T05:49:38.770Z,90.10
2019-03-15T05:50:44.330Z,90.44
2019-03-15T05:51:49.916Z,90.55
2019-03-15T05:52:55.537Z,90.50
2019-03-15T05:54:01.115Z,90.73
2019-03-15T05:55:09.178Z,90.95
2019-03-15T05:56:14.863Z,91.64
2019-03-15T05:57:20.404Z,92.06
2019-03-15T05:58:26.003Z,92.39
2019-03-15T05:59:31.607Z,92.34
2019-03-15T06:00:37.232Z,92.37
2019-03-15T06:01:42.840Z,92.60
2019-03-15T06:02:48.058Z,92.11
2019-03-15T06:03:53.706Z,92.56
2019-03-15T06:04:59.258Z,92.39
2019-03-15T06:06:04.556Z,92.41
2019-03-15T06:07:10.150Z,92.01
2019-03-15T06:08:15.772Z,92.11
2019-03-15T06:09:21.360Z,92.33
2019-03-15T06:10:26.948Z,92.18
2019-03-15T06:11:32.610Z,92.80
2019-03-15T06:12:37.832Z,92.47
2019-03-15T06:13:43.493Z,92.32
2019-03-15T06:14:49.151Z,91.93
2019-03-15T06:15:54.804Z,91.98
2019-03-15T06:17:00.494Z,91.72
2019-03-15T06:18:06.875Z,92.14
2019-03-15T06:19:11.893Z,91.70
2019-03-15T06:20:17.156Z,91.84
2019-03-15T06:21:22.716Z,91.53
2019-03-15T06:22:28.297Z,91.50
2019-03-15T06:23:33.907Z,91.61
2019-03-15T06:24:39.568Z,90.99
2019-03-15T06:25:45.188Z,91.10
2019-03-15T06:26:50.787Z,91.10
2019-03-15T06:27:56.392Z,91.31
2019-03-15T06:29:02.029Z,91.03
2019-03-15T06:30:14.772Z,91.05
2019-03-15T06:31:20.429Z,91.00
2019-03-15T06:32:25.998Z,91.08
2019-03-15T06:33:34.857Z,90.74
2019-03-15T06:34:40.465Z,90.57
2019-03-15T06:35:46.130Z,90.36
2019-03-15T06:36:51.704Z,90.68
2019-03-15T06:38:01.066Z,90.43
2019-03-15T06:39:06.076Z,90.88
2019-03-15T06:40:13.510Z,90.21
2019-03-15T06:41:17.072Z,90.20
2019-03-15T06:42:22.690Z,89.97
2019-03-15T06:43:28.332Z,90.11
2019-03-15T06:44:37.239Z,89.57
2019-03-15T06:45:41.848Z,90.02
2019-03-15T06:46:45.218Z,89.04
2019-03-15T06:47:50.883Z,89.13
2019-03-15T06:48:56.567Z,89.11
2019-03-15T06:50:02.159Z,89.48
2019-03-15T06:51:09.404Z,89.09
2019-03-15T06:52:14.560Z,89.09
2019-03-15T06:53:20.172Z,89.13
2019-03-15T06:54:25.787Z,89.20
2019-03-15T06:55:31.344Z,89.47
2019-03-15T06:56:36.947Z,89.30
2019-03-15T06:57:42.582Z,88.43
2019-03-15T06:58:48.190Z,88.42
2019-03-15T06:59:53.813Z,88.28
2019-03-15T07:00:59.412Z,88.22
2019-03-15T07:02:04.998Z,88.23
2019-03-15T07:03:10.629Z,88.69
2019-03-15T07:04:16.242Z,88.76
2019-03-15T07:05:21.825Z,88.77
2019-03-15T07:06:27.451Z,88.63
2019-03-15T07:07:33.062Z,89.15
2019-03-15T07:08:45.152Z,89.70
2019-03-15T07:09:50.783Z,89.19
2019-03-15T07:10:56.387Z,89.22
2019-03-15T07:12:09.371Z,90.30
2019-03-15T07:13:07.663Z,89.97
2019-03-15T07:14:13.255Z,90.20
2019-03-15T07:15:18.854Z,89.43
2019-03-15T07:16:24.509Z,88.86
2019-03-15T07:17:30.093Z,89.55
2019-03-15T07:18:35.778Z,90.45
2019-03-15T07:19:41.388Z,89.73
2019-03-15T07:20:47.053Z,90.20
2019-03-15T07:21:52.684Z,90.24
2019-03-15T07:22:58.396Z,89.01
2019-03-15T07:24:04.067Z,88.90
2019-03-15T07:25:09.168Z,88.57
2019-03-15T07:26:14.757Z,88.46
2019-03-15T07:27:20.357Z,89.53
2019-03-15T07:28:25.953Z,88.83
2019-03-15T07:29:31.579Z,89.41
2019-03-15T07:30:37.268Z,89.53
2019-03-15T07:31:42.965Z,89.85
2019-03-15T07:32:47.870Z,89.46
2019-03-15T07:33:53.464Z,89.17
2019-03-15T07:35:03.010Z,89.39
2019-03-15T07:36:08.593Z,89.66
2019-03-15T07:37:14.193Z,90.12
2019-03-15T07:38:19.814Z,90.30
2019-03-15T07:39:26.692Z,90.68
2019-03-15T07:40:31.086Z,90.18
2019-03-15T07:41:36.350Z,90.14
2019-03-15T07:42:41.970Z,90.58
2019-03-15T07:43:47.556Z,90.13
2019-03-15T07:44:53.183Z,89.98
2019-03-15T07:45:58.813Z,89.54
2019-03-15T07:47:05.390Z,90.27
2019-03-15T07:48:21.836Z,89.97
2019-03-15T07:49:16.732Z,90.15
2019-03-15T07:50:22.314Z,89.96
2019-03-15T07:51:27.200Z,89.96
2019-03-15T07:52:32.792Z,90.53
2019-03-15T07:53:38.374Z,90.86
2019-03-15T07:54:43.996Z,90.81
2019-03-15T07:55:49.632Z,90.16
2019-03-15T07:56:55.228Z,89.55
2019-03-15T07:58:00.793Z,88.98
2019-03-15T07:59:06.385Z,89.13
2019-03-15T08:00:13.138Z,89.35
2019-03-15T08:01:18.689Z,89.09
2019-03-15T08:02:24.255Z,89.88
2019-03-15T08:03:29.837Z,89.57
2019-03-15T08:04:36.070Z,89.42
2019-03-15T08:05:41.181Z,89.37
2019-03-15T08:06:46.827Z,89.73
2019-03-15T08:07:53.082Z,89.98
2019-03-15T08:08:58.108Z,89.76
2019-03-15T08:10:03.011Z,89.60
2019-03-15T08:11:07.943Z,89.68
2019-03-15T08:12:13.587Z,89.65
2019-03-15T08:13:19.225Z,89.89
2019-03-15T08:14:24.895Z,90.17
2019-03-15T08:15:30.517Z,89.90
2019-03-15T08:16:36.152Z,89.45
2019-03-15T08:17:41.427Z,89.83
2019-03-15T08:18:47.053Z,89.98
2019-03-15T08:19:52.678Z,89.81
2019-03-15T08:20:58.305Z,90.47
2019-03-15T08:22:03.546Z,90.39
2019-03-15T08:23:09.209Z,89.03
2019-03-15T08:24:14.838Z,89.20
2019-03-15T08:25:20.451Z,89.08
2019-03-15T08:26:26.030Z,88.89
2019-03-15T08:27:31.651Z,88.56
2019-03-15T08:28:37.310Z,87.55
2019-03-15T08:29:43.929Z,87.73
2019-03-15T08:30:49.588Z,87.78
2019-03-15T08:31:55.227Z,87.62
2019-03-15T08:33:10.028Z,87.44
2019-03-15T08:34:06.485Z,87.18
2019-03-15T08:35:11.395Z,86.68
2019-03-15T08:36:20.134Z,86.40
2019-03-15T08:37:22.615Z,86.77
2019-03-15T08:38:28.195Z,86.71
2019-03-15T08:39:33.802Z,86.85
2019-03-15T08:40:39.514Z,86.60
2019-03-15T08:41:44.839Z,85.71
2019-03-15T08:42:50.486Z,86.08
2019-03-15T08:43:56.057Z,86.20
2019-03-15T08:45:01.725Z,86.28
2019-03-15T08:46:07.177Z,86.05
2019-03-15T08:47:12.835Z,85.87
2019-03-15T08:48:18.488Z,85.71
2019-03-15T08:49:24.099Z,85.64
2019-03-15T08:50:29.825Z,84.64
2019-03-15T08:51:35.377Z,85.30
2019-03-15T08:52:42.155Z,84.53
2019-03-15T08:53:46.188Z,83.49
2019-03-15T08:55:04.207Z,83.99
2019-03-15T08:55:57.490Z,84.65
2019-03-15T08:57:03.208Z,84.67
2019-03-15T08:58:14.376Z,84.40
2019-03-15T08:59:14.363Z,84.56
2019-03-15T09:00:19.275Z,83.91
2019-03-15T09:01:24.856Z,83.56
2019-03-15T09:02:30.642Z,83.40
2019-03-15T09:03:36.275Z,83.11
2019-03-15T09:04:41.892Z,82.52
2019-03-15T09:05:47.562Z,82.02
2019-03-15T09:06:53.182Z,82.40
2019-03-15T09:07:58.797Z,82.18
2019-03-15T09:09:03.435Z,81.41
2019-03-15T09:10:21.938Z,80.93
2019-03-15T09:11:14.302Z,81.33
2019-03-15T09:12:19.918Z,80.54
2019-03-15T09:13:25.552Z,80.83
2019-03-15T09:14:31.213Z,82.02
2019-03-15T09:15:36.836Z,81.49
2019-03-15T09:16:42.441Z,81.86
2019-03-15T09:17:48.087Z,81.76
2019-03-15T09:18:55.458Z,81.24
2019-03-15T09:19:59.397Z,81.55
2019-03-15T09:21:05.061Z,81.83
2019-03-15T09:22:10.654Z,81.64
2019-03-15T09:23:16.365Z,81.18
2019-03-15T09:24:21.956Z,80.48
2019-03-15T09:25:27.263Z,80.56
2019-03-15T09:26:32.889Z,81.10
2019-03-15T09:27:38.460Z,80.19
2019-03-15T09:28:44.076Z,80.28
2019-03-15T09:29:49.731Z,79.76
2019-03-15T09:30:55.405Z,79.89
2019-03-15T09:32:06.341Z,79.85
2019-03-15T09:33:06.874Z,80.08
2019-03-15T09:34:12.529Z,80.05
2019-03-15T09:35:18.194Z,80.45
2019-03-15T09:36:23.506Z,79.39
2019-03-15T09:37:29.208Z,79.43
2019-03-15T09:38:34.779Z,79.29
2019-03-15T09:39:40.339Z,78.77
2019-03-15T09:40:46.105Z,79.08
2019-03-15T09:41:51.848Z,78.64
2019-03-15T09:42:59.882Z,79.38
2019-03-15T09:44:02.664Z,79.32
2019-03-15T09:45:13.723Z,78.89
2019-03-15T09:46:19.340Z,79.70
2019-03-15T09:47:25.508Z,78.87
2019-03-15T09:48:31.066Z,78.68
2019-03-15T09:49:36.697Z,78.67
2019-03-15T09:50:51.259Z,77.76
2019-03-15T09:51:47.959Z,77.99
2019-03-15T09:52:53.575Z,77.79
2019-03-15T09:53:59.230Z,78.17
2019-03-15T09:55:04.175Z,77.91
2019-03-15T09:56:09.824Z,76.68
2019-03-15T09:57:15.423Z,77.37
2019-03-15T09:58:20.998Z,76.72
2019-03-15T09:59:26.666Z,76.80
2019-03-15T10:00:32.276Z,77.39
2019-03-15T10:01:38.624Z,78.02
2019-03-15T10:02:43.792Z,77.65
2019-03-15T10:03:49.392Z,77.76
2019-03-15T10:04:55.061Z,77.40
2019-03-15T10:06:13.990Z,78.52
2019-03-15T10:07:06.510Z,78.05
2019-03-15T10:08:12.147Z,78.25
2019-03-15T10:09:17.826Z,80.06
2019-03-15T10:10:23.440Z,79.38
2019-03-15T10:11:29.151Z,80.12
2019-03-15T10:12:34.787Z,80.11
2019-03-15T10:13:40.404Z,80.91
2019-03-15T10:14:46.055Z,81.25
2019-03-15T10:15:55.413Z,81.77
2019-03-15T10:16:57.810Z,82.42
2019-03-15T10:18:03.552Z,81.92
2019-03-15T10:19:09.213Z,83.48
2019-03-15T10:20:14.109Z,82.95
2019-03-15T10:21:19.723Z,82.09
2019-03-15T10:22:25.310Z,82.84
2019-03-15T10:23:30.918Z,82.68
2019-03-15T10:24:36.502Z,83.41
2019-03-15T10:25:47.044Z,83.50
2019-03-15T10:26:47.855Z,84.53
2019-03-15T10:27:53.486Z,83.97
2019-03-15T10:28:59.121Z,84.04
2019-03-15T10:30:04.871Z,84.71
2019-03-15T10:31:10.294Z,85.18
2019-03-15T10:32:15.944Z,85.15
2019-03-15T10:33:21.586Z,85.23
2019-03-15T10:34:27.187Z,85.73
2019-03-15T10:35:32.825Z,85.17
2019-03-15T10:36:38.593Z,85.03
2019-03-15T10:37:44.099Z,85.10
2019-03-15T10:38:49.782Z,85.91
2019-03-15T10:39:55.383Z,84.75
2019-03-15T10:41:01.394Z,85.28
2019-03-15T10:42:06.702Z,85.38
2019-03-15T10:43:12.300Z,85.41
2019-03-15T10:44:17.891Z,85.58
2019-03-15T10:45:23.671Z,85.65
2019-03-15T10:46:29.409Z,86.33
2019-03-15T10:47:35.330Z,86.30
2019-03-15T10:48:41.932Z,86.03
2019-03-15T10:49:47.519Z,86.48
2019-03-15T10:50:53.140Z,86.77
2019-03-15T10:51:58.776Z,86.77
2019-03-15T10:53:04.513Z,85.96
2019-03-15T10:54:10.157Z,86.72
2019-03-15T10:55:15.468Z,87.79
2019-03-15T10:56:20.763Z,88.27
2019-03-15T10:57:26.399Z,87.49
2019-03-15T10:58:32.019Z,86.87
2019-03-15T10:59:37.699Z,87.38
2019-03-15T11:00:43.253Z,87.08
2019-03-15T11:01:48.857Z,87.40
2019-03-15T11:02:54.454Z,87.14
2019-03-15T11:04:00.047Z,86.74
2019-03-15T11:05:04.783Z,86.41
2019-03-15T11:06:10.479Z,86.63
2019-03-15T11:07:15.871Z,87.59
2019-03-15T11:08:24.105Z,87.21
2019-03-15T11:09:27.045Z,86.71
2019-03-15T11:10:32.666Z,86.62
2019-03-15T11:11:38.309Z,87.29
2019-03-15T11:12:43.970Z,87.38
2019-03-15T11:13:49.761Z,87.30
2019-03-15T11:14:55.435Z,87.74
2019-03-15T11:16:00.701Z,88.01
2019-03-15T11:17:06.313Z,88.25
2019-03-15T11:18:11.997Z,87.93
2019-03-15T11:19:17.645Z,88.62
2019-03-15T11:20:23.261Z,88.11
2019-03-15T11:21:28.890Z,88.14
2019-03-15T11:22:34.509Z,88.26
2019-03-15T11:23:40.128Z,88.46
2019-03-15T11:24:45.761Z,88.80
2019-03-15T11:25:51.390Z,87.66
2019-03-15T11:26:57.031Z,88.14
2019-03-15T11:28:02.629Z,87.71
2019-03-15T11:29:08.293Z,87.96
2019-03-15T11:30:13.199Z,88.12
2019-03-15T11:31:18.433Z,88.16
2019-03-15T11:32:24.069Z,87.23
2019-03-15T11:33:29.651Z,87.13
2019-03-15T11:34:35.239Z,87.64
2019-03-15T11:35:40.838Z,86.96
2019-03-15T11:36:57.908Z,87.64
2019-03-15T11:37:52.146Z,87.59
2019-03-15T11:38:57.725Z,86.98
2019-03-15T11:40:02.961Z,86.73
2019-03-15T11:41:08.616Z,86.68
2019-03-15T11:42:15.078Z,86.59
2019-03-15T11:43:19.828Z,86.99
2019-03-15T11:44:25.399Z,86.07
2019-03-15T11:45:30.976Z,86.20
2019-03-15T11:46:36.638Z,86.37
2019-03-15T11:48:01.230Z,85.84
2019-03-15T11:48:48.105Z,85.37
2019-03-15T11:49:53.727Z,85.09
2019-03-15T11:50:59.015Z,85.60
2019-03-15T11:52:03.970Z,85.25
2019-03-15T11:53:09.601Z,85.35
2019-03-15T11:54:15.327Z,85.11
2019-03-15T11:55:20.857Z,85.20
2019-03-15T11:56:27.386Z,85.80
2019-03-15T11:57:32.162Z,86.42
2019-03-15T11:58:37.844Z,86.76
2019-03-15T11:59:43.452Z,87.49
2019-03-15T12:00:49.087Z,86.81
2019-03-15T12:02:04.041Z,86.73
2019-03-15T12:03:00.355Z,87.30
2019-03-15T12:04:05.978Z,88.03
2019-03-15T12:05:10.953Z,87.57
2019-03-15T12:06:16.592Z,86.87
2019-03-15T12:07:22.246Z,87.13
2019-03-15T12:08:27.892Z,87.80
2019-03-15T12:09:33.520Z,87.82
2019-03-15T12:10:39.124Z,87.88
2019-03-15T12:11:44.764Z,86.64
2019-03-15T12:12:50.384Z,86.83
2019-03-15T12:13:55.626Z,87.35
2019-03-15T12:15:01.229Z,87.24
2019-03-15T12:16:06.836Z,87.10
2019-03-15T12:17:12.424Z,87.45
2019-03-15T12:18:18.200Z,87.79
2019-03-15T12:19:23.793Z,87.55
2019-03-15T12:20:29.380Z,87.32
2019-03-15T12:21:34.983Z,87.45
2019-03-15T12:22:40.284Z,87.18
2019-03-15T12:23:45.887Z,87.00
2019-03-15T12:24:51.479Z,87.19
2019-03-15T12:25:57.146Z,87.95
2019-03-15T12:27:02.756Z,89.55
2019-03-15T12:28:08.439Z,90.75
2019-03-15T12:29:14.043Z,89.97
2019-03-15T12:30:19.661Z,89.92
2019-03-15T12:31:25.275Z,90.13
2019-03-15T12:32:30.868Z,90.77
2019-03-15T12:33:36.588Z,91.27
2019-03-15T12:34:42.242Z,90.96
2019-03-15T12:35:47.887Z,92.16
2019-03-15T12:36:53.619Z,92.46
2019-03-15T12:37:59.288Z,91.58
2019-03-15T12:39:03.973Z,91.95
2019-03-15T12:40:09.010Z,91.54
2019-03-15T12:41:14.639Z,91.63
2019-03-15T12:42:20.226Z,92.21
2019-03-15T12:43:25.844Z,91.88
2019-03-15T12:44:31.417Z,92.90
2019-03-15T12:45:36.999Z,93.58
2019-03-15T12:46:42.599Z,93.46
2019-03-15T12:47:48.343Z,92.51
2019-03-15T12:48:54.076Z,92.55
2019-03-15T12:49:59.728Z,93.52
2019-03-15T12:51:05.365Z,93.87
2019-03-15T12:52:11.054Z,95.17
2019-03-15T12:53:16.700Z,95.18
2019-03-15T12:54:22.480Z,95.58
2019-03-15T12:55:28.434Z,95.15
2019-03-15T12:56:34.534Z,94.54
2019-03-15T12:57:40.490Z,95.39
2019-03-15T12:58:46.159Z,96.29
2019-03-15T12:59:51.758Z,96.19
2019-03-15T13:00:57.363Z,95.28
2019-03-15T13:02:03.003Z,95.24
2019-03-15T13:03:08.676Z,95.67
2019-03-15T13:04:14.304Z,94.92
2019-03-15T13:05:19.970Z,95.22
2019-03-15T13:06:25.554Z,94.18
2019-03-15T13:07:31.179Z,94.58
2019-03-15T13:08:36.860Z,93.84
2019-03-15T13:09:42.440Z,94.21
2019-03-15T13:10:48.067Z,95.74
2019-03-15T13:11:54.415Z,94.83
2019-03-15T13:12:59.990Z,94.58
2019-03-15T13:14:04.915Z,93.77
2019-03-15T13:15:10.402Z,93.56
2019-03-15T13:16:16.160Z,93.19
2019-03-15T13:17:21.743Z,93.76
2019-03-15T13:18:28.744Z,94.27
2019-03-15T13:19:34.452Z,93.83
2019-03-15T13:20:40.091Z,94.18
2019-03-15T13:21:45.734Z,93.72
2019-03-15T13:22:51.301Z,93.53
2019-03-15T13:23:56.968Z,92.90
2019-03-15T13:25:02.553Z,93.02
2019-03-15T13:26:08.215Z,92.75
2019-03-15T13:27:13.867Z,92.88
2019-03-15T13:28:19.491Z,93.09
2019-03-15T13:29:26.259Z,92.65
2019-03-15T13:30:31.854Z,92.54
2019-03-15T13:31:37.582Z,92.85
2019-03-15T13:32:43.194Z,92.96
2019-03-15T13:33:48.464Z,92.66
2019-03-15T13:34:54.197Z,93.17
2019-03-15T13:35:59.853Z,92.81
2019-03-15T13:37:05.458Z,92.93
2019-03-15T13:38:11.120Z,92.23
2019-03-15T13:39:16.880Z,92.83
2019-03-15T13:40:22.435Z,92.92
2019-03-15T13:41:28.027Z,93.32
2019-03-15T13:42:33.603Z,93.16
2019-03-15T13:43:39.294Z,92.97
2019-03-15T13:44:44.885Z,93.38
2019-03-15T13:45:50.442Z,93.46
2019-03-15T13:46:56.126Z,92.77
2019-03-15T13:48:01.764Z,92.63
2019-03-15T13:49:07.433Z,93.17
2019-03-15T13:50:13.247Z,93.05
2019-03-15T13:51:18.917Z,92.95
2019-03-15T13:52:24.483Z,92.33
2019-03-15T13:53:30.156Z,92.49
2019-03-15T13:54:35.772Z,92.50
2019-03-15T13:55:41.425Z,93.08
2019-03-15T13:56:48.483Z,92.55
2019-03-15T13:57:52.727Z,92.75
2019-03-15T13:58:58.365Z,92.83
2019-03-15T14:00:03.277Z,93.21
2019-03-15T14:01:08.859Z,93.28
2019-03-15T14:02:14.619Z,92.99
2019-03-15T14:03:20.258Z,93.19
2019-03-15T14:04:25.912Z,93.47
2019-03-15T14:05:31.529Z,93.83